Time;durP1;ratioP1;P1;durP2;ratioP2;P2;SDS_P1;SDS_P2;PMS_P1;PMS_P2;Temp;Humidity;BMP_temperature;BMP_pressure;BME280_temperature;BME280_humidity;BME280_pressure;Samples;Min_cycle;Max_cycle;Signal;HPM_P1;HPM_P2
2021/05/01 00:02:09;;;;;;;8.43;4.20;;;18.30;99.90;;;;;;6306623;22;20396;-81
2021/05/01 00:04:36;;;;;;;12.18;4.25;;;18.30;99.90;;;;;;6306778;22;20000;-79
2021/05/01 00:07:02;;;;;;;11.45;3.58;;;18.30;99.90;;;;;;6307082;22;20003;-77
2021/05/01 00:09:28;;;;;;;13.07;4.20;;;18.20;99.90;;;;;;6312302;22;20007;-80
2021/05/01 00:11:54;;;;;;;12.90;3.72;;;18.20;99.90;;;;;;6312368;22;20003;-82
2021/05/01 00:14:20;;;;;;;17.27;4.85;;;18.20;99.90;;;;;;6306579;22;20014;-81
2021/05/01 00:16:47;;;;;;;16.88;4.63;;;18.20;99.90;;;;;;6306423;22;19996;-78
2021/05/01 00:19:13;;;;;;;9.88;2.88;;;18.20;99.90;;;;;;6306727;22;20003;-78
2021/05/01 00:21:38;;;;;;;18.67;4.30;;;18.20;99.90;;;;;;6306769;22;20000;-78
2021/05/01 00:24:05;;;;;;;13.88;3.97;;;18.20;99.90;;;;;;6306743;22;20012;-81
2021/05/01 00:26:31;;;;;;;15.27;4.28;;;18.20;99.90;;;;;;6307158;22;20023;-78
2021/05/01 00:28:57;;;;;;;18.27;4.82;;;18.10;99.90;;;;;;6307010;22;20425;-81
2021/05/01 00:31:24;;;;;;;12.13;3.57;;;18.10;99.90;;;;;;6308567;22;20010;-76
2021/05/01 00:33:50;;;;;;;15.27;4.28;;;18.10;99.90;;;;;;6308545;22;20217;-76
2021/05/01 00:36:15;;;;;;;15.97;4.47;;;18.20;99.90;;;;;;6308656;22;20391;-77
2021/05/01 00:38:44;;;;;;;17.33;3.63;;;18.20;99.90;;;;;;6308332;22;20253;-81
2021/05/01 00:41:10;;;;;;;14.70;4.15;;;18.10;99.90;;;;;;6308408;22;20018;-77
2021/05/01 00:43:42;;;;;;;20.73;5.30;;;18.10;99.90;;;;;;6308336;22;20081;-82
2021/05/01 00:46:09;;;;;;;14.70;4.60;;;18.00;99.90;;;;;;6308401;22;20084;-81
2021/05/01 00:48:35;;;;;;;13.57;4.47;;;18.00;99.90;;;;;;6308366;22;20060;-78
2021/05/01 00:51:02;;;;;;;12.88;3.78;;;18.00;99.90;;;;;;6308201;22;20452;-81
2021/05/01 00:53:29;;;;;;;19.63;5.60;;;18.00;99.90;;;;;;6308396;22;19996;-81
2021/05/01 00:55:55;;;;;;;21.45;4.35;;;18.00;99.90;;;;;;6306882;22;20007;-77
2021/05/01 00:58:22;;;;;;;19.90;5.75;;;18.00;99.90;;;;;;6308001;22;20018;-81
2021/05/01 01:03:23;;;;;;;14.68;3.95;;;18.10;99.90;;;;;;6339337;22;20003;-79
2021/05/01 01:05:49;;;;;;;14.77;4.43;;;18.20;99.90;;;;;;6339358;22;20076;-81
2021/05/01 01:08:15;;;;;;;14.63;4.53;;;18.20;99.90;;;;;;6339253;22;20049;-81
2021/05/01 01:10:41;;;;;;;18.30;4.50;;;18.20;99.90;;;;;;6339471;22;20480;-80
2021/05/01 01:13:07;;;;;;;19.17;4.28;;;18.20;99.90;;;;;;6339279;22;20034;-76
2021/05/01 01:15:33;;;;;;;11.75;3.78;;;18.10;99.90;;;;;;6339436;22;19999;-77
2021/05/01 01:18:00;;;;;;;15.63;4.60;;;18.10;99.90;;;;;;6339092;22;20011;-80
2021/05/01 01:20:27;;;;;;;17.38;3.90;;;18.10;99.90;;;;;;6339426;22;19995;-80
2021/05/01 01:22:54;;;;;;;11.02;3.92;;;18.20;99.90;;;;;;6347652;22;19999;-75
2021/05/01 01:25:21;;;;;;;20.35;5.80;;;18.10;99.90;;;;;;6342557;22;20447;-76
2021/05/01 01:27:47;;;;;;;15.85;4.60;;;18.10;99.90;;;;;;6339031;22;20001;-81
2021/05/01 01:30:15;;;;;;;18.80;4.30;;;18.20;99.90;;;;;;6339408;22;19999;-80
2021/05/01 01:32:41;;;;;;;18.17;5.03;;;18.10;99.90;;;;;;6339284;22;19995;-77
2021/05/01 01:35:11;;;;;;;16.45;3.75;;;18.20;99.90;;;;;;6339196;22;20002;-81
2021/05/01 01:37:42;;;;;;;13.70;4.45;;;18.20;99.90;;;;;;6311048;22;20052;-77
2021/05/01 01:40:10;;;;;;;14.10;3.15;;;18.20;99.90;;;;;;6339003;22;20007;-76
2021/05/01 01:42:36;;;;;;;10.70;4.10;;;18.20;99.90;;;;;;6338894;22;20455;-81
2021/05/01 01:45:03;;;;;;;19.45;5.07;;;18.10;99.90;;;;;;6338981;22;20003;-82
2021/05/01 01:47:29;;;;;;;18.52;4.82;;;18.10;99.90;;;;;;6338901;22;20489;-83
2021/05/01 01:49:55;;;;;;;20.98;4.95;;;18.10;99.90;;;;;;6338978;22;20022;-83
2021/05/01 01:52:21;;;;;;;13.35;4.10;;;18.00;99.90;;;;;;6339110;22;20017;-79
2021/05/01 01:54:46;;;;;;;26.75;5.28;;;18.00;99.90;;;;;;6338865;22;20052;-80
2021/05/01 01:57:12;;;;;;;13.50;4.47;;;18.00;99.90;;;;;;6338706;22;20003;-80
2021/05/01 01:59:38;;;;;;;13.85;4.30;;;18.10;99.90;;;;;;6338894;22;20039;-78
2021/05/01 02:02:04;;;;;;;17.45;5.85;;;18.10;99.90;;;;;;6338799;22;20010;-80
2021/05/01 02:04:30;;;;;;;15.50;4.47;;;18.10;99.90;;;;;;6311084;22;20029;-81
2021/05/01 02:06:56;;;;;;;20.03;4.90;;;18.00;99.90;;;;;;6338866;22;20065;-83
2021/05/01 02:09:22;;;;;;;17.38;3.85;;;18.00;99.90;;;;;;6311254;22;20248;-82
2021/05/01 02:11:48;;;;;;;15.63;4.33;;;18.10;99.90;;;;;;6311197;22;20006;-79
2021/05/01 02:14:14;;;;;;;16.67;4.33;;;18.10;99.90;;;;;;6338627;22;20233;-79
2021/05/01 02:16:40;;;;;;;15.45;4.13;;;18.00;99.90;;;;;;6338707;22;20233;-78
2021/05/01 02:19:06;;;;;;;13.95;4.15;;;18.00;99.90;;;;;;6338656;22;20010;-77
2021/05/01 02:21:32;;;;;;;28.15;4.65;;;18.10;99.90;;;;;;6311351;22;20006;-77
2021/05/01 02:23:58;;;;;;;14.20;3.70;;;18.10;99.90;;;;;;6338729;22;20007;-78
2021/05/01 02:26:24;;;;;;;17.83;3.58;;;18.10;99.90;;;;;;6338761;22;20260;-82
2021/05/01 02:28:50;;;;;;;14.57;4.60;;;18.10;99.90;;;;;;6338853;22;20059;-77
2021/05/01 02:31:16;;;;;;;15.02;4.30;;;18.10;99.90;;;;;;6338570;22;20228;-76
2021/05/01 02:33:42;;;;;;;16.10;3.88;;;18.20;99.90;;;;;;6338990;22;20074;-80
2021/05/01 02:36:08;;;;;;;15.68;4.32;;;18.20;99.90;;;;;;6347093;22;19986;-76
2021/05/01 02:38:34;;;;;;;12.40;3.80;;;18.20;99.90;;;;;;6342274;22;20093;-77
2021/05/01 02:41:01;;;;;;;16.02;4.47;;;18.30;99.90;;;;;;6338598;22;20026;-77
2021/05/01 02:43:26;;;;;;;16.25;3.97;;;18.30;99.90;;;;;;6338478;22;20302;-82
2021/05/01 02:45:52;;;;;;;16.52;3.60;;;18.30;99.90;;;;;;6338447;22;20006;-81
2021/05/01 02:48:18;;;;;;;11.45;3.72;;;18.30;99.90;;;;;;6310784;22;20011;-81
2021/05/01 02:50:45;;;;;;;10.43;3.63;;;18.40;99.90;;;;;;6338574;22;20070;-81
2021/05/01 02:53:11;;;;;;;10.20;4.60;;;18.40;99.90;;;;;;6338352;22;20014;-81
2021/05/01 02:55:37;;;;;;;13.18;4.50;;;18.50;99.90;;;;;;6338363;22;19999;-80
2021/05/01 02:58:03;;;;;;;14.30;4.60;;;18.50;99.90;;;;;;6338228;22;20081;-81
2021/05/01 03:00:29;;;;;;;16.70;3.80;;;18.60;99.90;;;;;;6338147;22;20048;-80
2021/05/01 03:02:55;;;;;;;14.15;4.40;;;18.60;99.90;;;;;;6338425;22;20018;-81
2021/05/01 03:05:23;;;;;;;20.13;5.30;;;18.70;99.90;;;;;;6338800;22;19998;-81
2021/05/01 03:07:49;;;;;;;13.73;4.07;;;18.80;99.90;;;;;;6338790;22;19999;-83
2021/05/01 03:10:18;;;;;;;11.50;3.40;;;18.80;99.90;;;;;;6339232;22;20010;-82
2021/05/01 03:12:44;;;;;;;14.38;3.70;;;18.90;99.90;;;;;;6339362;22;20370;-82
2021/05/01 03:15:12;;;;;;;17.70;4.18;;;18.90;99.90;;;;;;6338793;22;20003;-83
2021/05/01 03:17:38;;;;;;;18.35;5.43;;;19.00;99.90;;;;;;6338180;22;20006;-85
2021/05/01 03:20:06;;;;;;;15.07;4.20;;;19.00;99.90;;;;;;6310481;22;20011;-83
2021/05/01 03:22:33;;;;;;;11.90;3.45;;;18.80;99.90;;;;;;6338316;22;20022;-83
2021/05/01 03:24:59;;;;;;;9.30;3.63;;;18.60;99.90;;;;;;6310819;22;20006;-84
2021/05/01 03:27:25;;;;;;;14.20;4.20;;;18.60;99.90;;;;;;6338097;22;20074;-83
2021/05/01 03:29:51;;;;;;;11.07;4.27;;;18.50;99.90;;;;;;6338271;22;20026;-83
2021/05/01 03:32:17;;;;;;;19.40;4.80;;;18.50;99.90;;;;;;6338189;22;20229;-83
2021/05/01 03:34:43;;;;;;;16.20;5.30;;;18.60;99.90;;;;;;6338216;22;20055;-83
2021/05/01 03:37:10;;;;;;;13.93;3.55;;;18.60;99.90;;;;;;6310354;22;20006;-82
2021/05/01 03:39:36;;;;;;;13.32;3.90;;;18.70;99.90;;;;;;6338456;22;20003;-79
2021/05/01 03:42:02;;;;;;;9.48;3.60;;;18.70;99.90;;;;;;6338241;22;19995;-84
2021/05/01 03:44:28;;;;;;;11.55;3.63;;;18.70;99.90;;;;;;6338180;22;20006;-80
2021/05/01 03:46:55;;;;;;;20.60;4.45;;;18.80;99.90;;;;;;6339101;22;20056;-82
2021/05/01 03:49:22;;;;;;;14.23;4.72;;;18.80;99.90;;;;;;6345815;22;19987;-83
2021/05/01 03:51:48;;;;;;;14.55;3.30;;;18.80;99.90;;;;;;6341221;22;19999;-83
2021/05/01 03:54:14;;;;;;;15.68;4.65;;;18.90;99.90;;;;;;6338104;22;20034;-79
2021/05/01 03:56:40;;;;;;;17.83;4.53;;;18.90;99.90;;;;;;6310375;22;19995;-83
2021/05/01 03:59:06;;;;;;;13.13;3.70;;;19.00;99.90;;;;;;6308968;22;20026;-79
2021/05/01 04:01:32;;;;;;;17.52;4.53;;;19.00;99.90;;;;;;6338699;22;20075;-82
2021/05/01 04:03:58;;;;;;;15.27;4.45;;;19.00;99.90;;;;;;6339950;22;20003;-83
2021/05/01 04:06:24;;;;;;;16.05;3.40;;;19.00;99.90;;;;;;6312536;22;20469;-84
2021/05/01 04:08:50;;;;;;;11.55;3.42;;;19.10;99.90;;;;;;6339974;22;19999;-83
2021/05/01 04:11:17;;;;;;;16.50;3.03;;;19.10;99.90;;;;;;6340626;22;20006;-82
2021/05/01 04:13:47;;;;;;;7.38;3.15;;;19.10;99.90;;;;;;6312299;22;20718;-80
2021/05/01 04:16:14;;;;;;;10.55;2.97;;;19.10;99.90;;;;;;6339957;22;20077;-82
2021/05/01 04:18:41;;;;;;;12.18;3.20;;;19.10;99.90;;;;;;6339927;22;20337;-78
2021/05/01 04:21:07;;;;;;;13.07;3.22;;;19.10;99.90;;;;;;6339887;22;20464;-80
2021/05/01 04:23:34;;;;;;;8.90;1.98;;;19.00;99.90;;;;;;6312383;22;20014;-83
2021/05/01 04:26:00;;;;;;;15.93;2.88;;;19.10;99.90;;;;;;6312355;22;20002;-82
2021/05/01 04:28:27;;;;;;;8.02;1.83;;;19.10;99.90;;;;;;6340369;22;20453;-83
2021/05/01 04:30:57;;;;;;;14.35;2.42;;;19.10;99.90;;;;;;6340129;22;20069;-84
2021/05/01 04:33:23;;;;;;;8.27;2.70;;;19.00;99.90;;;;;;6340030;22;20010;-81
2021/05/01 04:35:49;;;;;;;12.07;2.65;;;18.90;99.90;;;;;;6313062;22;19999;-83
2021/05/01 04:38:16;;;;;;;15.50;4.10;;;18.80;99.90;;;;;;6339481;22;20091;-83
2021/05/01 04:40:43;;;;;;;13.55;3.95;;;18.80;99.90;;;;;;6340199;22;20321;-78
2021/05/01 04:43:11;;;;;;;11.02;2.95;;;18.70;99.90;;;;;;6339778;22;20007;-79
2021/05/01 04:45:38;;;;;;;12.15;2.75;;;18.60;99.90;;;;;;6340144;22;19995;-79
2021/05/01 04:48:06;;;;;;;10.20;2.55;;;18.60;99.90;;;;;;6342915;22;20011;-83
2021/05/01 04:50:32;;;;;;;18.83;3.67;;;18.50;99.90;;;;;;6313475;22;20003;-83
2021/05/01 04:52:59;;;;;;;12.38;3.70;;;18.50;99.90;;;;;;6339419;22;20448;-79
2021/05/01 04:55:26;;;;;;;18.70;3.00;;;18.50;99.90;;;;;;6312294;22;19998;-84
2021/05/01 04:57:53;;;;;;;10.75;3.42;;;18.50;99.90;;;;;;6339816;22;20085;-83
2021/05/01 05:00:20;;;;;;;17.85;4.10;;;18.50;99.90;;;;;;6339950;22;20038;-79
2021/05/01 05:02:46;;;;;;;10.80;3.08;;;18.30;99.90;;;;;;6345734;22;20001;-83
2021/05/01 05:05:17;;;;;;;13.75;3.92;;;18.10;99.90;;;;;;6343158;22;20432;-84
2021/05/01 05:07:43;;;;;;;10.25;3.80;;;18.10;99.90;;;;;;6339393;22;20005;-83
2021/05/01 05:10:11;;;;;;;11.38;2.97;;;18.00;99.90;;;;;;6339342;22;20003;-84
2021/05/01 05:12:37;;;;;;;14.23;4.45;;;17.90;99.90;;;;;;6311876;22;20081;-84
2021/05/01 05:15:05;;;;;;;20.17;4.18;;;17.90;99.90;;;;;;6339250;22;19999;-84
2021/05/01 05:17:31;;;;;;;18.13;4.28;;;18.00;99.90;;;;;;6339247;22;20010;-81
2021/05/01 05:19:57;;;;;;;16.00;4.93;;;18.00;99.90;;;;;;6311926;22;20002;-83
2021/05/01 05:22:23;;;;;;;13.25;3.38;;;18.00;99.90;;;;;;6311618;22;20010;-81
2021/05/01 05:24:49;;;;;;;12.40;3.17;;;18.00;99.90;;;;;;6339272;22;20001;-83
2021/05/01 05:27:16;;;;;;;19.02;4.30;;;18.00;99.90;;;;;;6311741;22;20002;-82
2021/05/01 05:29:49;;;;;;;11.18;3.03;;;18.00;99.90;;;;;;6339391;22;20002;-81
2021/05/01 05:32:15;;;;;;;15.15;4.05;;;18.00;99.90;;;;;;6311616;22;20007;-79
2021/05/01 05:34:41;;;;;;;11.88;4.38;;;18.00;99.90;;;;;;6339015;22;19998;-79
2021/05/01 05:37:07;;;;;;;12.77;4.20;;;18.00;99.90;;;;;;6339148;22;19995;-81
2021/05/01 05:39:33;;;;;;;12.48;3.60;;;18.10;99.90;;;;;;6311717;22;20738;-81
2021/05/01 05:41:59;;;;;;;21.57;4.87;;;18.10;99.90;;;;;;6339111;22;19991;-81
2021/05/01 05:44:25;;;;;;;11.02;4.10;;;18.10;99.90;;;;;;6339120;22;20233;-78
2021/05/01 05:46:51;;;;;;;11.30;3.85;;;18.10;99.90;;;;;;6339253;22;20320;-81
2021/05/01 05:49:17;;;;;;;17.43;3.73;;;18.10;99.90;;;;;;6338988;22;20026;-81
2021/05/01 05:51:43;;;;;;;12.02;3.33;;;18.10;99.90;;;;;;6339269;22;20362;-77
2021/05/01 05:54:09;;;;;;;16.33;4.10;;;18.20;99.90;;;;;;6339077;22;20052;-80
2021/05/01 05:56:35;;;;;;;12.70;4.17;;;18.20;99.90;;;;;;6338912;22;20003;-81
2021/05/01 05:59:01;;;;;;;18.17;5.78;;;18.20;99.90;;;;;;6338395;22;20341;-80
2021/05/01 06:01:30;;;;;;;18.30;4.07;;;18.10;99.90;;;;;;6339164;22;20350;-81
2021/05/01 06:03:59;;;;;;;13.20;3.78;;;18.10;99.90;;;;;;6311240;22;20007;-81
2021/05/01 06:06:33;;;;;;;15.85;4.75;;;18.10;99.90;;;;;;6338915;22;20006;-81
2021/05/01 06:09:02;;;;;;;11.02;3.63;;;18.00;99.90;;;;;;6339040;22;20333;-81
2021/05/01 06:11:28;;;;;;;16.88;4.57;;;18.00;99.90;;;;;;6339134;22;20006;-81
2021/05/01 06:14:01;;;;;;;13.25;4.10;;;18.00;99.90;;;;;;6340008;22;20003;-79
2021/05/01 06:16:28;;;;;;;13.93;4.32;;;18.00;99.90;;;;;;6350488;22;20003;-80
2021/05/01 06:18:54;;;;;;;12.68;5.05;;;18.00;99.90;;;;;;6338767;22;20010;-81
2021/05/01 06:21:20;;;;;;;15.85;3.65;;;18.00;99.90;;;;;;6338667;22;19998;-81
2021/05/01 06:23:46;;;;;;;11.35;3.60;;;18.00;99.90;;;;;;6338488;22;20124;-81
2021/05/01 06:26:12;;;;;;;15.18;4.47;;;18.10;99.90;;;;;;6338577;22;20003;-81
2021/05/01 06:28:38;;;;;;;13.13;5.22;;;18.10;99.90;;;;;;6338934;22;20003;-78
2021/05/01 06:31:06;;;;;;;14.07;3.77;;;18.10;99.90;;;;;;6311467;22;20356;-77
2021/05/01 06:33:37;;;;;;;15.77;4.93;;;18.10;99.90;;;;;;6338774;22;20267;-77
2021/05/01 06:36:05;;;;;;;11.48;3.72;;;18.10;99.90;;;;;;6338757;22;20383;-77
2021/05/01 06:38:32;;;;;;;16.30;4.13;;;18.10;99.90;;;;;;6338632;22;20018;-82
2021/05/01 06:41:03;;;;;;;18.25;5.43;;;18.20;99.90;;;;;;6338434;22;20002;-77
2021/05/01 06:44:11;;;;;;;18.33;4.93;;;18.20;99.90;;;;;;6338663;22;20007;-77
2021/05/01 06:46:40;;;;;;;19.20;5.13;;;18.30;99.90;;;;;;6338496;22;20085;-81
2021/05/01 06:49:12;;;;;;;20.08;4.47;;;18.20;99.90;;;;;;6338685;22;20323;-79
2021/05/01 06:51:40;;;;;;;21.73;4.95;;;18.30;99.90;;;;;;6338783;22;19999;-76
2021/05/01 06:54:10;;;;;;;13.10;5.00;;;18.30;99.90;;;;;;6338690;22;20007;-77
2021/05/01 06:56:40;;;;;;;17.38;4.30;;;18.30;99.90;;;;;;6338822;22;20017;-81
2021/05/01 06:59:08;;;;;;;25.00;6.50;;;18.40;99.90;;;;;;6338379;22;20011;-77
2021/05/01 07:01:38;;;;;;;17.90;5.03;;;18.40;99.90;;;;;;6338401;22;19998;-81
2021/05/01 07:04:07;;;;;;;16.23;5.90;;;18.40;99.90;;;;;;6310948;22;20007;-81
2021/05/01 07:06:34;;;;;;;29.63;5.68;;;18.40;99.90;;;;;;6310776;22;20437;-78
2021/05/01 07:09:00;;;;;;;17.90;5.80;;;18.40;99.90;;;;;;6310671;22;20007;-82
2021/05/01 07:11:28;;;;;;;15.52;5.10;;;18.50;99.90;;;;;;6338300;22;20007;-76
2021/05/01 07:13:54;;;;;;;17.63;5.20;;;18.50;99.90;;;;;;6338549;22;20333;-81
2021/05/01 07:16:21;;;;;;;19.38;4.70;;;18.50;99.90;;;;;;6338425;22;19999;-81
2021/05/01 07:18:48;;;;;;;15.00;4.63;;;18.60;99.90;;;;;;6338303;22;20018;-81
2021/05/01 07:21:15;;;;;;;11.82;3.85;;;18.60;99.90;;;;;;6338175;22;20003;-81
2021/05/01 07:23:41;;;;;;;19.00;5.40;;;18.70;99.90;;;;;;6338376;22;20002;-79
2021/05/01 07:26:11;;;;;;;17.92;5.20;;;18.70;99.90;;;;;;6338155;22;19999;-80
2021/05/01 07:28:40;;;;;;;17.17;5.40;;;18.70;99.90;;;;;;6345588;22;20006;-76
2021/05/01 07:31:08;;;;;;;15.98;5.88;;;18.80;99.90;;;;;;6346451;22;20052;-77
2021/05/01 07:33:45;;;;;;;26.08;6.10;;;18.90;99.90;;;;;;6338313;22;20059;-80
2021/05/01 07:36:16;;;;;;;19.60;4.93;;;19.00;99.90;;;;;;6337562;22;19999;-76
2021/05/01 07:38:43;;;;;;;11.55;4.32;;;19.10;99.90;;;;;;6338028;22;20038;-79
2021/05/01 07:41:12;;;;;;;11.52;4.30;;;19.20;99.90;;;;;;6338077;22;20006;-81
2021/05/01 07:43:46;;;;;;;17.40;4.40;;;19.20;99.90;;;;;;6338340;22;20003;-81
2021/05/01 07:46:13;;;;;;;24.55;5.38;;;19.20;99.90;;;;;;6338338;22;20023;-79
2021/05/01 07:48:41;;;;;;;15.23;4.45;;;19.30;99.90;;;;;;6338258;22;19998;-81
2021/05/01 07:51:08;;;;;;;13.93;5.25;;;19.30;99.90;;;;;;6338057;22;20356;-78
2021/05/01 07:53:34;;;;;;;16.48;5.47;;;19.30;99.90;;;;;;6310567;22;20441;-82
2021/05/01 07:56:01;;;;;;;17.67;5.30;;;19.40;99.90;;;;;;6338080;22;19999;-82
2021/05/01 07:58:27;;;;;;;10.57;4.25;;;19.40;99.90;;;;;;6337721;22;20089;-82
2021/05/01 08:00:53;;;;;;;18.42;4.68;;;19.50;99.90;;;;;;6338130;22;20007;-81
2021/05/01 08:03:21;;;;;;;16.20;5.15;;;19.50;99.90;;;;;;6337908;22;20002;-81
2021/05/01 08:05:48;;;;;;;13.35;4.43;;;19.60;99.90;;;;;;6338086;22;20006;-81
2021/05/01 08:08:14;;;;;;;12.60;4.60;;;19.70;99.90;;;;;;6337887;22;20006;-81
2021/05/01 08:10:41;;;;;;;12.75;4.80;;;19.70;99.90;;;;;;6338103;22;20014;-81
2021/05/01 08:13:07;;;;;;;16.92;4.88;;;19.80;99.90;;;;;;6337937;22;20460;-77
2021/05/01 08:15:33;;;;;;;14.53;4.83;;;19.90;99.90;;;;;;6337808;22;19999;-78
2021/05/01 08:18:01;;;;;;;16.65;4.30;;;19.90;99.90;;;;;;6337698;22;20246;-81
2021/05/01 08:20:28;;;;;;;16.83;4.32;;;19.90;99.90;;;;;;6337863;22;20003;-80
2021/05/01 08:22:56;;;;;;;14.15;5.05;;;20.00;99.90;;;;;;6337947;22;19999;-81
2021/05/01 08:25:22;;;;;;;15.00;4.55;;;20.00;99.90;;;;;;6337964;22;20002;-81
2021/05/01 08:27:48;;;;;;;19.73;6.13;;;20.10;99.90;;;;;;6338063;22;20010;-76
2021/05/01 08:30:16;;;;;;;11.60;4.18;;;20.20;99.90;;;;;;6337673;22;19995;-80
2021/05/01 08:32:43;;;;;;;14.27;4.55;;;20.20;99.90;;;;;;6337733;22;19999;-79
2021/05/01 08:35:10;;;;;;;12.73;3.92;;;20.30;99.90;;;;;;6310068;22;20023;-81
2021/05/01 08:37:36;;;;;;;12.02;3.60;;;20.30;99.90;;;;;;6337601;22;20011;-81
2021/05/01 08:40:05;;;;;;;19.55;4.68;;;20.30;99.90;;;;;;6337981;22;20073;-82
2021/05/01 08:42:32;;;;;;;18.35;5.28;;;20.40;99.90;;;;;;6347505;22;20023;-76
2021/05/01 08:45:03;;;;;;;18.48;4.80;;;20.50;99.90;;;;;;6340453;22;20018;-78
2021/05/01 08:47:33;;;;;;;18.75;3.97;;;20.60;99.90;;;;;;6338047;22;20003;-77
2021/05/01 08:50:07;;;;;;;15.35;5.68;;;20.70;99.90;;;;;;6340118;22;20034;-80
2021/05/01 08:52:34;;;;;;;17.40;4.55;;;20.80;99.90;;;;;;6339574;22;19999;-78
2021/05/01 08:55:01;;;;;;;15.55;3.72;;;20.90;99.90;;;;;;6312316;22;20006;-76
2021/05/01 08:57:29;;;;;;;13.98;4.45;;;20.80;99.90;;;;;;6339314;22;19999;-81
2021/05/01 08:59:56;;;;;;;14.75;5.05;;;20.90;99.90;;;;;;6339370;22;20099;-81
2021/05/01 09:02:25;;;;;;;17.88;6.28;;;21.00;99.90;;;;;;6339433;22;19995;-82
2021/05/01 09:04:53;;;;;;;18.17;4.55;;;20.90;99.90;;;;;;6339454;22;20473;-82
2021/05/01 09:07:20;;;;;;;11.98;4.45;;;20.90;99.90;;;;;;6339338;22;19995;-81
2021/05/01 09:09:57;;;;;;;17.25;4.85;;;20.80;99.90;;;;;;6339679;22;20336;-81
2021/05/01 09:12:43;;;;;;;23.15;4.30;;;20.80;99.90;;;;;;6339327;22;20042;-82
2021/05/01 09:15:19;;;;;;;20.98;4.32;;;20.70;99.90;;;;;;6339494;22;19999;-82
2021/05/01 09:17:46;;;;;;;11.43;4.85;;;20.70;99.90;;;;;;6311725;22;20026;-79
2021/05/01 09:20:17;;;;;;;10.05;4.95;;;20.60;99.90;;;;;;6339349;22;20048;-80
2021/05/01 09:23:04;;;;;;;13.30;4.57;;;20.70;99.90;;;;;;6339302;22;20006;-82
2021/05/01 09:25:46;;;;;;;13.30;4.03;;;20.70;99.90;;;;;;6339512;22;19998;-81
2021/05/01 09:28:15;;;;;;;12.02;3.40;;;20.80;99.90;;;;;;6339308;22;20048;-83
2021/05/01 09:30:43;;;;;;;15.88;4.50;;;20.70;99.90;;;;;;6339361;22;19999;-81
2021/05/01 09:33:19;;;;;;;14.32;4.63;;;20.90;99.90;;;;;;6339229;22;20026;-83
2021/05/01 09:35:55;;;;;;;14.80;3.42;;;20.90;99.90;;;;;;6339464;22;20007;-77
2021/05/01 09:38:21;;;;;;;18.35;4.07;;;21.00;99.90;;;;;;6339117;22;20014;-83
2021/05/01 09:40:49;;;;;;;9.45;4.30;;;21.10;99.90;;;;;;6339259;22;19997;-83
2021/05/01 09:43:16;;;;;;;11.50;4.05;;;21.10;99.90;;;;;;6339148;22;20337;-82
2021/05/01 09:45:42;;;;;;;16.08;4.90;;;21.20;99.90;;;;;;6339087;22;20034;-78
2021/05/01 09:48:13;;;;;;;15.55;4.28;;;21.20;99.90;;;;;;6338988;22;19998;-84
2021/05/01 09:50:39;;;;;;;12.77;3.50;;;21.20;99.90;;;;;;6339042;22;20005;-83
2021/05/01 09:53:10;;;;;;;12.68;3.97;;;21.30;99.90;;;;;;6339138;22;20021;-78
2021/05/01 09:55:41;;;;;;;17.90;4.07;;;21.20;99.90;;;;;;6343931;22;20030;-83
2021/05/01 09:58:22;;;;;;;14.43;3.50;;;21.30;99.90;;;;;;6340822;22;20062;-82
2021/05/01 10:00:51;;;;;;;15.73;4.57;;;21.40;99.90;;;;;;6338617;22;20333;-82
2021/05/01 10:03:27;;;;;;;16.50;4.93;;;21.50;99.90;;;;;;6338746;22;19994;-78
2021/05/01 10:05:58;;;;;;;15.38;4.70;;;21.50;99.90;;;;;;6338929;22;20003;-83
2021/05/01 10:08:31;;;;;;;11.02;5.00;;;21.60;99.90;;;;;;6339206;22;20002;-83
2021/05/01 10:11:06;;;;;;;;;;;21.60;99.90;;;;;;6339349;22;20011;-83
2021/05/01 10:13:36;;;;;;;15.45;4.30;;;21.60;99.90;;;;;;6339043;22;20314;-83
2021/05/01 10:16:07;;;;;;;15.82;4.22;;;21.70;99.90;;;;;;6338739;22;20441;-84
2021/05/01 10:18:33;;;;;;;19.30;4.10;;;21.70;99.90;;;;;;6338627;22;20019;-84
2021/05/01 10:21:00;;;;;;;14.25;4.72;;;21.80;99.90;;;;;;6338705;22;20082;-82
2021/05/01 10:23:26;;;;;;;20.95;6.28;;;21.90;99.90;;;;;;6338662;22;20507;-81
2021/05/01 10:25:52;;;;;;;16.83;4.18;;;21.90;99.90;;;;;;6338779;22;20077;-83
2021/05/01 10:28:19;;;;;;;15.63;4.57;;;22.10;99.90;;;;;;6338684;22;20030;-83
2021/05/01 10:30:53;;;;;;;17.42;4.45;;;22.20;99.90;;;;;;6338867;22;20010;-79
2021/05/01 10:33:25;;;;;;;14.38;4.90;;;22.40;99.90;;;;;;6338652;22;20021;-83
2021/05/01 10:35:57;;;;;;;15.68;4.85;;;22.50;99.90;;;;;;6338843;22;20333;-83
2021/05/01 10:38:24;;;;;;;13.07;4.82;;;22.60;99.90;;;;;;6338462;22;20011;-84
2021/05/01 10:40:53;;;;;;;10.23;3.22;;;22.70;99.90;;;;;;6311016;22;20002;-82
2021/05/01 10:43:22;;;;;;;11.23;3.55;;;22.90;99.90;;;;;;6338806;22;20074;-80
2021/05/01 10:46:07;;;;;;;14.80;3.88;;;23.10;99.90;;;;;;6338689;22;19999;-84
2021/05/01 10:48:47;;;;;;;11.88;4.50;;;23.10;99.90;;;;;;6338587;22;20055;-84
2021/05/01 10:51:15;;;;;;;11.25;3.75;;;23.20;99.90;;;;;;6338567;22;20006;-82
2021/05/01 10:53:42;;;;;;;14.65;3.35;;;23.10;99.90;;;;;;6338512;22;19999;-83
2021/05/01 10:56:10;;;;;;;11.82;4.18;;;22.90;99.90;;;;;;6338560;22;19998;-84
2021/05/01 10:58:45;;;;;;;10.07;3.72;;;22.90;99.90;;;;;;6338090;22;20011;-78
2021/05/01 11:01:27;;;;;;;17.75;4.00;;;23.00;99.90;;;;;;6310712;22;20341;-78
2021/05/01 11:03:58;;;;;;;12.48;3.58;;;23.00;99.90;;;;;;6310705;22;20461;-77
2021/05/01 11:06:26;;;;;;;12.52;4.18;;;23.00;99.90;;;;;;6338406;22;20010;-78
2021/05/01 11:09:08;;;;;;;13.00;5.30;;;23.00;99.90;;;;;;6317385;22;20048;-84
2021/05/01 11:11:35;;;;;;;13.98;3.80;;;22.90;99.90;;;;;;6338912;22;20002;-78
2021/05/01 11:14:24;;;;;;;10.65;3.63;;;23.00;99.90;;;;;;6338450;22;20005;-85
2021/05/01 11:16:59;;;;;;;9.85;4.07;;;23.00;99.90;;;;;;6338275;22;20081;-84
2021/05/01 11:19:28;;;;;;;9.68;2.83;;;23.00;99.90;;;;;;6338529;22;20014;-84
2021/05/01 11:21:57;;;;;;;12.80;3.53;;;23.10;99.90;;;;;;6338373;22;20002;-83
2021/05/01 11:24:24;;;;;;;21.45;3.42;;;23.00;99.90;;;;;;6338441;22;20479;-77
2021/05/01 11:26:50;;;;;;;10.48;4.22;;;23.00;99.90;;;;;;6338086;22;20005;-83
2021/05/01 11:29:17;;;;;;;12.82;3.17;;;23.00;99.90;;;;;;6338699;22;19999;-77
2021/05/01 11:31:46;;;;;;;14.13;3.33;;;23.00;99.90;;;;;;6338910;22;20009;-78
2021/05/01 11:34:14;;;;;;;12.55;3.00;;;23.00;99.90;;;;;;6338447;22;20375;-82
2021/05/01 11:36:46;;;;;;;18.35;3.75;;;23.00;99.90;;;;;;6338262;22;20002;-84
2021/05/01 11:39:14;;;;;;;10.85;4.93;;;23.00;99.90;;;;;;6338357;22;20018;-83
2021/05/01 11:41:43;;;;;;;16.98;4.63;;;23.00;99.90;;;;;;6338635;22;20078;-82
2021/05/01 11:44:14;;;;;;;12.70;2.60;;;23.00;99.90;;;;;;6338481;22;20355;-83
2021/05/01 11:46:48;;;;;;;9.77;3.97;;;23.10;99.90;;;;;;6338003;22;20414;-84
2021/05/01 11:49:18;;;;;;;12.35;4.13;;;23.20;99.90;;;;;;6338227;22;20011;-78
2021/05/01 11:52:03;;;;;;;25.60;3.60;;;23.40;99.90;;;;;;6338162;22;20516;-84
2021/05/01 11:54:57;;;;;;;13.00;3.05;;;23.70;99.90;;;;;;6338285;22;20002;-83
2021/05/01 11:57:50;;;;;;;12.38;3.00;;;24.00;99.90;;;;;;6338095;22;20006;-84
2021/05/01 12:00:40;;;;;;;14.65;3.88;;;24.60;99.90;;;;;;6336763;22;20406;-78
2021/05/01 12:03:23;;;;;;;13.30;3.60;;;25.00;99.60;;;;;;6338017;22;20463;-79
2021/05/01 12:05:54;;;;;;;15.20;3.40;;;25.00;97.40;;;;;;6338114;22;19998;-81
2021/05/01 12:08:23;;;;;;;11.88;3.33;;;25.10;95.90;;;;;;6338164;22;20082;-80
2021/05/01 12:10:56;;;;;;;11.20;3.40;;;25.10;95.90;;;;;;6340373;22;20003;-83
2021/05/01 12:13:28;;;;;;;;;;;25.30;95.90;;;;;;6338405;22;19999;-83
2021/05/01 12:15:55;;;;;;;14.07;3.72;;;25.50;94.40;;;;;;6337845;22;20241;-82
2021/05/01 12:18:39;;;;;;;11.45;4.13;;;25.70;93.70;;;;;;6310575;22;20010;-84
2021/05/01 12:21:05;;;;;;;11.63;3.13;;;25.70;92.50;;;;;;6340332;22;20076;-79
2021/05/01 12:24:19;;;;;;;10.57;2.77;;;25.80;92.30;;;;;;6344862;22;20007;-82
2021/05/01 12:26:45;;;;;;;13.75;3.53;;;25.80;91.50;;;;;;6272647;22;20229;-84
2021/05/01 12:29:24;;;;;;;12.17;2.93;;;25.50;90.90;;;;;;6339909;22;20332;-84
2021/05/01 12:32:06;;;;;;;10.57;2.53;;;25.30;90.40;;;;;;6339711;22;20006;-84
2021/05/01 12:34:50;;;;;;;8.38;2.22;;;25.20;90.50;;;;;;6339638;22;20325;-84
2021/05/01 12:37:21;;;;;;;10.35;2.08;;;25.20;90.30;;;;;;6312009;22;20348;-81
2021/05/01 12:39:47;;;;;;;5.88;2.65;;;25.10;89.60;;;;;;6339820;22;20003;-85
2021/05/01 12:42:22;;;;;;;12.95;2.92;;;25.10;88.80;;;;;;6340155;22;20302;-79
2021/05/01 12:44:48;;;;;;;14.90;2.75;;;25.40;87.40;;;;;;6339971;22;20022;-83
2021/05/01 12:47:47;;;;;;;11.02;3.25;;;25.70;87.50;;;;;;6339629;22;19999;-84
2021/05/01 12:50:20;;;;;;;11.38;3.28;;;26.00;86.20;;;;;;6255296;22;20448;-83